sensor_id;sensor_type;location;lat;lon;timestamp;temperature;humidity
19192;DHT22;9728;48.194;16.346;2023-04-07T00:03:51;15.20;43.20
19192;DHT22;9728;48.194;16.346;2023-04-07T00:08:55;15.20;43.30
19192;DHT22;9728;48.194;16.346;2023-04-07T00:13:58;15.20;43.30
19192;DHT22;9728;48.194;16.346;2023-04-07T00:19:03;15.10;43.30
19192;DHT22;9728;48.194;16.346;2023-04-07T00:24:06;15.10;43.20
19192;DHT22;9728;48.194;16.346;2023-04-07T00:29:10;15.10;43.60
19192;DHT22;9728;48.194;16.346;2023-04-07T00:34:15;15.00;43.50
19192;DHT22;9728;48.194;16.346;2023-04-07T00:39:18;15.00;43.40
19192;DHT22;9728;48.194;16.346;2023-04-07T00:44:22;15.00;43.70
19192;DHT22;9728;48.194;16.346;2023-04-07T00:49:27;15.00;43.70
19192;DHT22;9728;48.194;16.346;2023-04-07T00:54:30;14.90;43.60
19192;DHT22;9728;48.194;16.346;2023-04-07T00:59:33;14.90;43.80
19192;DHT22;9728;48.194;16.346;2023-04-07T01:04:45;14.80;43.40
19192;DHT22;9728;48.194;16.346;2023-04-07T01:09:54;14.90;43.80
19192;DHT22;9728;48.194;16.346;2023-04-07T01:15:07;14.80;43.90
19192;DHT22;9728;48.194;16.346;2023-04-07T01:20:19;14.80;43.90
19192;DHT22;9728;48.194;16.346;2023-04-07T01:25:39;14.80;43.70
19192;DHT22;9728;48.194;16.346;2023-04-07T01:30:47;14.80;43.80
19192;DHT22;9728;48.194;16.346;2023-04-07T01:35:52;14.70;43.90
19192;DHT22;9728;48.194;16.346;2023-04-07T01:40:57;14.70;44.00
19192;DHT22;9728;48.194;16.346;2023-04-07T01:46:03;14.60;43.80
19192;DHT22;9728;48.194;16.346;2023-04-07T01:51:07;14.60;44.00
19192;DHT22;9728;48.194;16.346;2023-04-07T01:56:12;14.60;43.90
19192;DHT22;9728;48.194;16.346;2023-04-07T02:01:19;14.60;44.00
19192;DHT22;9728;48.194;16.346;2023-04-07T02:06:27;14.60;44.10
19192;DHT22;9728;48.194;16.346;2023-04-07T02:11:35;14.60;43.90
19192;DHT22;9728;48.194;16.346;2023-04-07T02:16:41;14.50;43.90
19192;DHT22;9728;48.194;16.346;2023-04-07T02:21:50;14.50;44.10
19192;DHT22;9728;48.194;16.346;2023-04-07T02:26:54;14.50;44.30
19192;DHT22;9728;48.194;16.346;2023-04-07T02:32:00;14.50;44.00
19192;DHT22;9728;48.194;16.346;2023-04-07T02:37:03;14.50;44.10
19192;DHT22;9728;48.194;16.346;2023-04-07T02:42:08;14.50;44.10
19192;DHT22;9728;48.194;16.346;2023-04-07T02:47:12;14.50;44.20
19192;DHT22;9728;48.194;16.346;2023-04-07T02:52:17;14.50;44.10
19192;DHT22;9728;48.194;16.346;2023-04-07T02:57:21;14.50;44.10
19192;DHT22;9728;48.194;16.346;2023-04-07T03:02:29;14.50;44.20
19192;DHT22;9728;48.194;16.346;2023-04-07T03:07:32;14.50;44.20
19192;DHT22;9728;48.194;16.346;2023-04-07T03:12:36;14.50;44.10
19192;DHT22;9728;48.194;16.346;2023-04-07T03:17:40;14.50;44.20
19192;DHT22;9728;48.194;16.346;2023-04-07T03:22:44;14.50;44.10
19192;DHT22;9728;48.194;16.346;2023-04-07T03:27:55;14.50;44.90
19192;DHT22;9728;48.194;16.346;2023-04-07T03:33:03;14.50;44.40
19192;DHT22;9728;48.194;16.346;2023-04-07T03:38:07;14.40;44.20
19192;DHT22;9728;48.194;16.346;2023-04-07T03:43:10;14.40;44.20
19192;DHT22;9728;48.194;16.346;2023-04-07T03:48:19;14.40;44.30
19192;DHT22;9728;48.194;16.346;2023-04-07T03:53:33;14.30;44.20
19192;DHT22;9728;48.194;16.346;2023-04-07T03:58:48;14.30;44.30
19192;DHT22;9728;48.194;16.346;2023-04-07T04:04:01;14.30;44.20
19192;DHT22;9728;48.194;16.346;2023-04-07T04:09:05;14.30;44.40
19192;DHT22;9728;48.194;16.346;2023-04-07T04:14:12;14.20;44.50
19192;DHT22;9728;48.194;16.346;2023-04-07T04:19:24;14.30;44.40
19192;DHT22;9728;48.194;16.346;2023-04-07T04:24:29;14.20;44.50
19192;DHT22;9728;48.194;16.346;2023-04-07T04:29:36;14.20;44.30
19192;DHT22;9728;48.194;16.346;2023-04-07T04:34:43;14.20;44.50
19192;DHT22;9728;48.194;16.346;2023-04-07T04:39:48;14.20;44.80
19192;DHT22;9728;48.194;16.346;2023-04-07T04:44:55;14.20;44.70
19192;DHT22;9728;48.194;16.346;2023-04-07T04:50:01;14.20;44.60
19192;DHT22;9728;48.194;16.346;2023-04-07T04:55:08;14.20;44.60
19192;DHT22;9728;48.194;16.346;2023-04-07T05:00:17;14.20;44.50
19192;DHT22;9728;48.194;16.346;2023-04-07T05:05:25;14.20;44.80
19192;DHT22;9728;48.194;16.346;2023-04-07T05:10:30;14.20;45.00
19192;DHT22;9728;48.194;16.346;2023-04-07T05:15:33;14.10;44.70
19192;DHT22;9728;48.194;16.346;2023-04-07T05:20:40;14.10;44.90
19192;DHT22;9728;48.194;16.346;2023-04-07T05:25:45;14.10;45.00
19192;DHT22;9728;48.194;16.346;2023-04-07T05:30:48;14.20;45.10
19192;DHT22;9728;48.194;16.346;2023-04-07T05:36:00;14.10;45.00
19192;DHT22;9728;48.194;16.346;2023-04-07T05:41:05;14.20;45.10
19192;DHT22;9728;48.194;16.346;2023-04-07T05:46:10;14.20;44.80
19192;DHT22;9728;48.194;16.346;2023-04-07T05:51:23;14.20;45.10
19192;DHT22;9728;48.194;16.346;2023-04-07T05:56:29;14.20;45.00
19192;DHT22;9728;48.194;16.346;2023-04-07T06:01:33;14.20;45.20
19192;DHT22;9728;48.194;16.346;2023-04-07T06:06:39;14.20;45.10
19192;DHT22;9728;48.194;16.346;2023-04-07T06:11:42;14.30;45.30
19192;DHT22;9728;48.194;16.346;2023-04-07T06:16:49;14.20;46.00
19192;DHT22;9728;48.194;16.346;2023-04-07T06:21:54;14.20;45.10
19192;DHT22;9728;48.194;16.346;2023-04-07T06:26:57;14.20;45.10
19192;DHT22;9728;48.194;16.346;2023-04-07T06:32:02;14.20;45.00
19192;DHT22;9728;48.194;16.346;2023-04-07T06:37:07;14.20;45.00
19192;DHT22;9728;48.194;16.346;2023-04-07T06:42:10;14.30;45.30
19192;DHT22;9728;48.194;16.346;2023-04-07T06:47:23;14.30;45.50
19192;DHT22;9728;48.194;16.346;2023-04-07T06:52:28;14.30;45.30
19192;DHT22;9728;48.194;16.346;2023-04-07T06:57:31;14.30;45.40
19192;DHT22;9728;48.194;16.346;2023-04-07T07:02:34;14.40;45.30
19192;DHT22;9728;48.194;16.346;2023-04-07T07:07:39;14.40;45.70
19192;DHT22;9728;48.194;16.346;2023-04-07T07:12:43;14.40;45.50
19192;DHT22;9728;48.194;16.346;2023-04-07T07:17:46;14.40;45.70
19192;DHT22;9728;48.194;16.346;2023-04-07T07:22:50;14.50;45.60
19192;DHT22;9728;48.194;16.346;2023-04-07T07:27:54;14.50;45.50
19192;DHT22;9728;48.194;16.346;2023-04-07T07:32:57;14.60;45.60
19192;DHT22;9728;48.194;16.346;2023-04-07T07:38:02;14.60;45.50
19192;DHT22;9728;48.194;16.346;2023-04-07T07:43:05;14.70;45.60
19192;DHT22;9728;48.194;16.346;2023-04-07T07:48:09;14.80;45.50
19192;DHT22;9728;48.194;16.346;2023-04-07T07:53:13;14.90;45.90
19192;DHT22;9728;48.194;16.346;2023-04-07T07:58:17;14.90;45.80
19192;DHT22;9728;48.194;16.346;2023-04-07T08:03:20;15.00;45.80
19192;DHT22;9728;48.194;16.346;2023-04-07T08:08:25;15.10;45.50
19192;DHT22;9728;48.194;16.346;2023-04-07T08:13:28;15.10;45.80
19192;DHT22;9728;48.194;16.346;2023-04-07T08:18:32;15.20;45.50
19192;DHT22;9728;48.194;16.346;2023-04-07T08:23:37;15.30;45.70
19192;DHT22;9728;48.194;16.346;2023-04-07T08:28:41;15.40;45.70
19192;DHT22;9728;48.194;16.346;2023-04-07T08:33:44;15.40;45.80
19192;DHT22;9728;48.194;16.346;2023-04-07T08:38:50;15.50;45.60
19192;DHT22;9728;48.194;16.346;2023-04-07T08:43:54;15.60;45.60
19192;DHT22;9728;48.194;16.346;2023-04-07T08:49:00;15.60;45.60
19192;DHT22;9728;48.194;16.346;2023-04-07T08:54:08;15.70;45.60
19192;DHT22;9728;48.194;16.346;2023-04-07T08:59:13;15.70;45.60
19192;DHT22;9728;48.194;16.346;2023-04-07T09:04:17;15.70;45.40
19192;DHT22;9728;48.194;16.346;2023-04-07T09:09:21;15.80;45.60
19192;DHT22;9728;48.194;16.346;2023-04-07T09:14:25;15.80;45.50
19192;DHT22;9728;48.194;16.346;2023-04-07T09:19:29;15.90;45.50
19192;DHT22;9728;48.194;16.346;2023-04-07T09:24:33;15.90;45.70
19192;DHT22;9728;48.194;16.346;2023-04-07T09:29:37;16.00;45.60
19192;DHT22;9728;48.194;16.346;2023-04-07T09:34:40;16.10;45.60
19192;DHT22;9728;48.194;16.346;2023-04-07T09:39:49;16.20;45.60
19192;DHT22;9728;48.194;16.346;2023-04-07T09:44:53;16.20;45.60
19192;DHT22;9728;48.194;16.346;2023-04-07T09:49:56;16.40;45.70
19192;DHT22;9728;48.194;16.346;2023-04-07T09:55:04;16.40;45.50
19192;DHT22;9728;48.194;16.346;2023-04-07T10:00:09;16.40;45.70
19192;DHT22;9728;48.194;16.346;2023-04-07T10:05:16;16.50;45.40
19192;DHT22;9728;48.194;16.346;2023-04-07T10:10:23;16.50;45.40
19192;DHT22;9728;48.194;16.346;2023-04-07T10:15:27;16.60;45.30
19192;DHT22;9728;48.194;16.346;2023-04-07T10:20:31;16.60;45.30
19192;DHT22;9728;48.194;16.346;2023-04-07T10:25:38;16.60;45.20
19192;DHT22;9728;48.194;16.346;2023-04-07T10:30:42;16.70;45.00
19192;DHT22;9728;48.194;16.346;2023-04-07T10:36:05;16.70;46.00
19192;DHT22;9728;48.194;16.346;2023-04-07T10:41:32;16.80;45.20
19192;DHT22;9728;48.194;16.346;2023-04-07T10:47:03;16.80;44.80
19192;DHT22;9728;48.194;16.346;2023-04-07T10:52:23;16.80;45.10
19192;DHT22;9728;48.194;16.346;2023-04-07T10:57:28;16.80;45.40
19192;DHT22;9728;48.194;16.346;2023-04-07T11:02:32;16.80;44.70
19192;DHT22;9728;48.194;16.346;2023-04-07T11:07:44;16.90;44.90
19192;DHT22;9728;48.194;16.346;2023-04-07T11:13:00;16.90;44.40
19192;DHT22;9728;48.194;16.346;2023-04-07T11:18:13;16.90;44.30
19192;DHT22;9728;48.194;16.346;2023-04-07T11:23:20;16.90;44.20
19192;DHT22;9728;48.194;16.346;2023-04-07T11:28:27;16.90;44.10
19192;DHT22;9728;48.194;16.346;2023-04-07T11:33:30;17.00;44.00
19192;DHT22;9728;48.194;16.346;2023-04-07T11:38:37;17.00;44.00
19192;DHT22;9728;48.194;16.346;2023-04-07T11:43:41;17.00;44.10
19192;DHT22;9728;48.194;16.346;2023-04-07T11:48:45;17.00;44.10
19192;DHT22;9728;48.194;16.346;2023-04-07T11:53:54;17.10;44.30
19192;DHT22;9728;48.194;16.346;2023-04-07T11:58:59;17.10;44.20
19192;DHT22;9728;48.194;16.346;2023-04-07T12:04:03;17.10;44.20
19192;DHT22;9728;48.194;16.346;2023-04-07T12:09:07;17.20;44.40
19192;DHT22;9728;48.194;16.346;2023-04-07T12:14:13;17.30;44.40
19192;DHT22;9728;48.194;16.346;2023-04-07T12:19:16;17.40;44.40
19192;DHT22;9728;48.194;16.346;2023-04-07T12:24:21;17.50;44.50
19192;DHT22;9728;48.194;16.346;2023-04-07T12:29:26;17.60;44.70
19192;DHT22;9728;48.194;16.346;2023-04-07T12:34:29;17.70;44.50
19192;DHT22;9728;48.194;16.346;2023-04-07T12:39:32;17.80;44.30
19192;DHT22;9728;48.194;16.346;2023-04-07T12:44:37;17.80;44.20
19192;DHT22;9728;48.194;16.346;2023-04-07T12:49:40;17.90;44.20
19192;DHT22;9728;48.194;16.346;2023-04-07T12:54:44;17.90;44.20
19192;DHT22;9728;48.194;16.346;2023-04-07T12:59:49;18.00;44.30
19192;DHT22;9728;48.194;16.346;2023-04-07T13:04:52;18.10;44.30
19192;DHT22;9728;48.194;16.346;2023-04-07T13:09:56;18.20;44.50
19192;DHT22;9728;48.194;16.346;2023-04-07T13:15:01;18.20;44.70
19192;DHT22;9728;48.194;16.346;2023-04-07T13:20:05;18.30;44.40
19192;DHT22;9728;48.194;16.346;2023-04-07T13:25:09;18.30;44.30
19192;DHT22;9728;48.194;16.346;2023-04-07T13:30:15;18.30;44.90
19192;DHT22;9728;48.194;16.346;2023-04-07T13:35:22;18.40;44.20
19192;DHT22;9728;48.194;16.346;2023-04-07T13:40:25;18.40;44.20
19192;DHT22;9728;48.194;16.346;2023-04-07T13:45:30;18.30;44.20
19192;DHT22;9728;48.194;16.346;2023-04-07T13:50:35;18.40;44.30
19192;DHT22;9728;48.194;16.346;2023-04-07T13:55:38;18.40;44.30
19192;DHT22;9728;48.194;16.346;2023-04-07T14:00:44;18.40;44.40
19192;DHT22;9728;48.194;16.346;2023-04-07T14:05:47;18.40;44.60
19192;DHT22;9728;48.194;16.346;2023-04-07T14:10:51;18.40;44.70
19192;DHT22;9728;48.194;16.346;2023-04-07T14:15:55;18.30;44.50
19192;DHT22;9728;48.194;16.346;2023-04-07T14:20:59;18.30;44.80
19192;DHT22;9728;48.194;16.346;2023-04-07T14:26:04;18.30;45.00
19192;DHT22;9728;48.194;16.346;2023-04-07T14:31:13;18.30;45.30
19192;DHT22;9728;48.194;16.346;2023-04-07T14:36:17;18.30;45.50
19192;DHT22;9728;48.194;16.346;2023-04-07T14:41:20;18.30;45.50
19192;DHT22;9728;48.194;16.346;2023-04-07T14:46:25;18.30;45.20
19192;DHT22;9728;48.194;16.346;2023-04-07T14:51:29;18.30;45.30
19192;DHT22;9728;48.194;16.346;2023-04-07T14:56:32;18.30;45.50
19192;DHT22;9728;48.194;16.346;2023-04-07T15:01:37;18.20;45.20
19192;DHT22;9728;48.194;16.346;2023-04-07T15:06:41;18.20;45.50
19192;DHT22;9728;48.194;16.346;2023-04-07T15:11:47;18.20;45.80
19192;DHT22;9728;48.194;16.346;2023-04-07T15:16:51;18.10;45.60
19192;DHT22;9728;48.194;16.346;2023-04-07T15:21:55;18.10;45.70
19192;DHT22;9728;48.194;16.346;2023-04-07T15:26:58;18.00;45.70
19192;DHT22;9728;48.194;16.346;2023-04-07T15:32:03;18.00;45.50
19192;DHT22;9728;48.194;16.346;2023-04-07T15:37:06;17.90;45.90
19192;DHT22;9728;48.194;16.346;2023-04-07T15:42:10;17.90;45.80
19192;DHT22;9728;48.194;16.346;2023-04-07T15:47:16;17.90;45.90
19192;DHT22;9728;48.194;16.346;2023-04-07T15:52:19;17.90;46.10
19192;DHT22;9728;48.194;16.346;2023-04-07T15:57:22;17.90;45.10
19192;DHT22;9728;48.194;16.346;2023-04-07T16:02:27;17.80;45.40
19192;DHT22;9728;48.194;16.346;2023-04-07T16:07:31;17.80;45.70
19192;DHT22;9728;48.194;16.346;2023-04-07T16:12:34;17.80;45.70
19192;DHT22;9728;48.194;16.346;2023-04-07T16:17:41;17.70;45.30
19192;DHT22;9728;48.194;16.346;2023-04-07T16:22:46;17.60;45.60
19192;DHT22;9728;48.194;16.346;2023-04-07T16:27:51;17.50;45.60
19192;DHT22;9728;48.194;16.346;2023-04-07T16:32:56;17.50;45.80
19192;DHT22;9728;48.194;16.346;2023-04-07T16:38:01;17.40;45.90
19192;DHT22;9728;48.194;16.346;2023-04-07T16:43:07;17.30;45.70
19192;DHT22;9728;48.194;16.346;2023-04-07T16:48:12;17.20;45.90
19192;DHT22;9728;48.194;16.346;2023-04-07T16:53:15;17.20;46.30
19192;DHT22;9728;48.194;16.346;2023-04-07T16:58:21;17.20;46.40
19192;DHT22;9728;48.194;16.346;2023-04-07T17:03:26;17.10;46.40
19192;DHT22;9728;48.194;16.346;2023-04-07T17:08:30;17.10;46.70
19192;DHT22;9728;48.194;16.346;2023-04-07T17:13:34;17.00;46.60
19192;DHT22;9728;48.194;16.346;2023-04-07T17:18:39;17.00;46.80
19192;DHT22;9728;48.194;16.346;2023-04-07T17:23:43;16.90;46.80
19192;DHT22;9728;48.194;16.346;2023-04-07T17:28:46;16.90;46.80
19192;DHT22;9728;48.194;16.346;2023-04-07T17:33:51;16.90;46.90
19192;DHT22;9728;48.194;16.346;2023-04-07T17:38:54;16.80;47.00
19192;DHT22;9728;48.194;16.346;2023-04-07T17:43:58;16.80;47.10
19192;DHT22;9728;48.194;16.346;2023-04-07T17:49:03;16.80;47.20
19192;DHT22;9728;48.194;16.346;2023-04-07T17:54:06;16.70;47.20
19192;DHT22;9728;48.194;16.346;2023-04-07T17:59:10;16.70;47.40
19192;DHT22;9728;48.194;16.346;2023-04-07T18:04:15;16.70;47.50
19192;DHT22;9728;48.194;16.346;2023-04-07T18:09:18;16.60;47.70
19192;DHT22;9728;48.194;16.346;2023-04-07T18:14:22;16.60;47.70
19192;DHT22;9728;48.194;16.346;2023-04-07T18:19:27;16.50;47.80
19192;DHT22;9728;48.194;16.346;2023-04-07T18:24:31;16.60;47.90
19192;DHT22;9728;48.194;16.346;2023-04-07T18:29:35;16.50;47.90
19192;DHT22;9728;48.194;16.346;2023-04-07T18:34:39;16.50;48.10
19192;DHT22;9728;48.194;16.346;2023-04-07T18:39:43;16.50;48.40
19192;DHT22;9728;48.194;16.346;2023-04-07T18:44:46;16.50;48.60
19192;DHT22;9728;48.194;16.346;2023-04-07T18:49:51;16.50;48.70
19192;DHT22;9728;48.194;16.346;2023-04-07T18:54:55;16.50;48.70
19192;DHT22;9728;48.194;16.346;2023-04-07T18:59:59;16.40;49.10
19192;DHT22;9728;48.194;16.346;2023-04-07T19:05:04;16.40;49.30
19192;DHT22;9728;48.194;16.346;2023-04-07T19:10:08;16.40;49.20
19192;DHT22;9728;48.194;16.346;2023-04-07T19:15:11;16.40;49.10
19192;DHT22;9728;48.194;16.346;2023-04-07T19:20:16;16.40;48.90
19192;DHT22;9728;48.194;16.346;2023-04-07T19:25:20;16.40;49.00
19192;DHT22;9728;48.194;16.346;2023-04-07T19:30:24;16.30;48.90
19192;DHT22;9728;48.194;16.346;2023-04-07T19:35:30;16.30;48.80
19192;DHT22;9728;48.194;16.346;2023-04-07T19:40:34;16.30;49.20
19192;DHT22;9728;48.194;16.346;2023-04-07T19:45:38;16.30;49.00
19192;DHT22;9728;48.194;16.346;2023-04-07T19:50:45;16.30;49.10
19192;DHT22;9728;48.194;16.346;2023-04-07T19:55:50;16.20;49.50
19192;DHT22;9728;48.194;16.346;2023-04-07T20:00:53;16.20;49.10
19192;DHT22;9728;48.194;16.346;2023-04-07T20:05:58;16.20;49.20
19192;DHT22;9728;48.194;16.346;2023-04-07T20:11:02;16.20;49.40
19192;DHT22;9728;48.194;16.346;2023-04-07T20:16:06;16.20;49.50
19192;DHT22;9728;48.194;16.346;2023-04-07T20:21:11;16.10;49.50
19192;DHT22;9728;48.194;16.346;2023-04-07T20:26:16;16.10;49.80
19192;DHT22;9728;48.194;16.346;2023-04-07T20:31:19;16.10;49.90
19192;DHT22;9728;48.194;16.346;2023-04-07T20:36:24;16.00;50.00
19192;DHT22;9728;48.194;16.346;2023-04-07T20:41:28;16.00;50.40
19192;DHT22;9728;48.194;16.346;2023-04-07T20:46:32;16.00;50.30
19192;DHT22;9728;48.194;16.346;2023-04-07T20:51:37;16.00;50.40
19192;DHT22;9728;48.194;16.346;2023-04-07T20:56:41;16.00;50.50
19192;DHT22;9728;48.194;16.346;2023-04-07T21:01:45;16.00;50.50
19192;DHT22;9728;48.194;16.346;2023-04-07T21:06:50;16.00;50.50
19192;DHT22;9728;48.194;16.346;2023-04-07T21:11:53;16.00;50.70
19192;DHT22;9728;48.194;16.346;2023-04-07T21:16:57;16.00;50.60
19192;DHT22;9728;48.194;16.346;2023-04-07T21:22:01;16.00;50.70
19192;DHT22;9728;48.194;16.346;2023-04-07T21:27:05;16.00;50.90
19192;DHT22;9728;48.194;16.346;2023-04-07T21:32:09;16.00;50.80
19192;DHT22;9728;48.194;16.346;2023-04-07T21:37:14;15.90;50.70
19192;DHT22;9728;48.194;16.346;2023-04-07T21:42:18;15.90;50.70
19192;DHT22;9728;48.194;16.346;2023-04-07T21:47:21;15.90;51.00
19192;DHT22;9728;48.194;16.346;2023-04-07T21:52:26;15.90;51.10
19192;DHT22;9728;48.194;16.346;2023-04-07T21:57:30;15.90;51.10
19192;DHT22;9728;48.194;16.346;2023-04-07T22:02:34;15.90;51.00
19192;DHT22;9728;48.194;16.346;2023-04-07T22:07:39;15.90;51.00
19192;DHT22;9728;48.194;16.346;2023-04-07T22:12:43;15.90;51.40
19192;DHT22;9728;48.194;16.346;2023-04-07T22:17:46;15.90;51.40
19192;DHT22;9728;48.194;16.346;2023-04-07T22:22:51;15.90;51.40
19192;DHT22;9728;48.194;16.346;2023-04-07T22:27:58;15.90;51.70
19192;DHT22;9728;48.194;16.346;2023-04-07T22:33:02;15.90;51.60
19192;DHT22;9728;48.194;16.346;2023-04-07T22:38:06;15.90;51.60
19192;DHT22;9728;48.194;16.346;2023-04-07T22:43:10;15.90;52.20
19192;DHT22;9728;48.194;16.346;2023-04-07T22:48:13;15.90;52.00
19192;DHT22;9728;48.194;16.346;2023-04-07T22:53:19;15.80;52.00
19192;DHT22;9728;48.194;16.346;2023-04-07T22:58:23;15.70;52.40
19192;DHT22;9728;48.194;16.346;2023-04-07T23:03:26;15.70;52.40
19192;DHT22;9728;48.194;16.346;2023-04-07T23:08:31;15.60;52.60
19192;DHT22;9728;48.194;16.346;2023-04-07T23:13:34;15.50;53.00
19192;DHT22;9728;48.194;16.346;2023-04-07T23:18:39;15.40;53.60
19192;DHT22;9728;48.194;16.346;2023-04-07T23:23:43;15.40;53.10
19192;DHT22;9728;48.194;16.346;2023-04-07T23:28:47;15.30;53.50
19192;DHT22;9728;48.194;16.346;2023-04-07T23:33:50;15.20;53.50
19192;DHT22;9728;48.194;16.346;2023-04-07T23:38:55;15.10;53.60
19192;DHT22;9728;48.194;16.346;2023-04-07T23:43:58;15.00;54.00
19192;DHT22;9728;48.194;16.346;2023-04-07T23:49:02;15.00;53.90
19192;DHT22;9728;48.194;16.346;2023-04-07T23:54:07;14.90;54.20
19192;DHT22;9728;48.194;16.346;2023-04-07T23:59:10;14.80;54.40
